createdAt,value
2023-02-14T00:01:10.405Z,8.23
2023-02-14T00:03:46.124Z,6.78
2023-02-14T00:06:13.903Z,6.95
2023-02-14T00:08:46.367Z,7.07
2023-02-14T00:11:14.061Z,7.60
2023-02-14T00:14:01.160Z,6.80
2023-02-14T00:16:27.990Z,9.20
2023-02-14T00:19:03.577Z,13.57
2023-02-14T00:21:31.379Z,14.98
2023-02-14T00:23:58.253Z,9.82
2023-02-14T00:26:24.982Z,6.53
2023-02-14T00:28:51.793Z,6.22
2023-02-14T00:31:18.987Z,9.00
2023-02-14T00:33:45.834Z,9.93
2023-02-14T00:36:12.805Z,11.10
2023-02-14T00:38:39.501Z,12.80
2023-02-14T00:41:06.225Z,11.88
2023-02-14T00:43:33.039Z,13.35
2023-02-14T00:45:59.801Z,13.15
2023-02-14T00:48:26.848Z,16.13
2023-02-14T00:50:53.604Z,23.67
2023-02-14T00:53:20.426Z,18.15
2023-02-14T00:55:47.172Z,12.40
2023-02-14T00:58:14.158Z,22.42
2023-02-14T01:00:41.072Z,59.00
2023-02-14T01:03:08.012Z,9.05
2023-02-14T01:05:34.885Z,7.03
2023-02-14T01:08:01.541Z,10.07
2023-02-14T01:10:28.461Z,19.05
2023-02-14T01:12:55.328Z,27.38
2023-02-14T01:15:22.687Z,36.53
2023-02-14T01:17:49.511Z,61.05
2023-02-14T01:20:16.669Z,21.13
2023-02-14T01:22:48.374Z,14.40
2023-02-14T01:25:15.211Z,26.67
2023-02-14T01:27:41.972Z,12.98
2023-02-14T01:30:09.657Z,10.27
2023-02-14T01:32:36.535Z,11.95
2023-02-14T01:35:03.541Z,12.45
2023-02-14T01:37:30.650Z,12.98
2023-02-14T01:39:57.477Z,14.02
2023-02-14T01:42:24.185Z,14.70
2023-02-14T01:45:02.705Z,13.32
2023-02-14T01:47:32.507Z,13.43
2023-02-14T01:50:09.974Z,13.73
2023-02-14T01:52:56.514Z,11.88
2023-02-14T01:55:28.256Z,9.23
2023-02-14T01:58:31.994Z,6.28
2023-02-14T02:00:59.485Z,6.55
2023-02-14T02:03:47.616Z,4.60
2023-02-14T02:06:37.502Z,4.38
2023-02-14T02:09:33.497Z,4.45
2023-02-14T02:12:19.708Z,3.40
2023-02-14T02:14:48.488Z,3.95
2023-02-14T02:17:41.869Z,2.80
2023-02-14T02:21:07.684Z,3.03
2023-02-14T02:24:04.786Z,3.20
2023-02-14T02:27:11.617Z,3.03
2023-02-14T02:30:09.828Z,3.22
2023-02-14T02:33:04.779Z,2.65
2023-02-14T02:36:00.121Z,2.47
2023-02-14T02:38:47.098Z,2.58
2023-02-14T02:41:47.744Z,2.75
2023-02-14T02:44:50.699Z,2.67
2023-02-14T02:47:34.712Z,2.42
2023-02-14T02:50:58.288Z,2.38
2023-02-14T02:53:32.282Z,2.65
2023-02-14T02:56:25.690Z,2.28
2023-02-14T02:59:01.056Z,1.95
2023-02-14T03:01:41.936Z,2.30
2023-02-14T03:04:35.610Z,2.47
2023-02-14T03:07:24.998Z,2.55
2023-02-14T03:09:54.559Z,2.22
2023-02-14T03:12:33.687Z,1.80
2023-02-14T03:15:08.340Z,2.28
2023-02-14T03:17:57.980Z,1.90
2023-02-14T03:20:45.183Z,1.98
2023-02-14T03:23:27.659Z,2.17
2023-02-14T03:29:03.881Z,2.20
2023-02-14T03:31:49.745Z,2.17
2023-02-14T03:34:47.536Z,2.22
2023-02-14T03:37:34.551Z,2.80
2023-02-14T03:40:24.333Z,2.15
2023-02-14T03:43:16.966Z,2.40
2023-02-14T03:48:49.717Z,2.85
2023-02-14T03:51:18.417Z,4.28
2023-02-14T03:54:02.705Z,4.30
2023-02-14T03:56:41.974Z,4.15
2023-02-14T03:59:21.668Z,4.57
2023-02-14T04:02:08.921Z,4.18
2023-02-14T04:04:40.587Z,3.20
2023-02-14T04:07:12.613Z,4.32
2023-02-14T04:09:45.315Z,3.75
2023-02-14T04:12:12.537Z,3.35
2023-02-14T04:14:39.592Z,3.10
2023-02-14T04:17:25.339Z,2.97
2023-02-14T04:19:52.129Z,2.88
2023-02-14T04:22:27.741Z,4.05
2023-02-14T04:24:54.373Z,4.88
2023-02-14T04:27:21.093Z,6.57
2023-02-14T04:29:52.681Z,7.00
2023-02-14T04:32:21.664Z,7.70
2023-02-14T04:34:49.202Z,8.40
2023-02-14T04:37:18.617Z,7.80
2023-02-14T04:39:45.417Z,10.30
2023-02-14T04:42:12.125Z,9.95
2023-02-14T04:44:38.971Z,9.15
2023-02-14T04:47:09.281Z,9.13
2023-02-14T04:49:44.543Z,9.02
2023-02-14T04:52:23.274Z,7.78
2023-02-14T04:54:50.066Z,8.00
2023-02-14T04:57:16.794Z,8.00
2023-02-14T04:59:49.646Z,6.32
2023-02-14T05:02:16.320Z,6.20
2023-02-14T05:04:43.058Z,6.18
2023-02-14T05:07:17.335Z,6.72
2023-02-14T05:10:03.466Z,6.07
2023-02-14T05:12:30.309Z,7.20
2023-02-14T05:14:57.558Z,6.72
2023-02-14T05:17:24.269Z,7.20
2023-02-14T05:19:50.851Z,6.85
2023-02-14T05:22:20.597Z,6.10
2023-02-14T05:24:50.232Z,5.68
2023-02-14T05:27:16.923Z,5.55
2023-02-14T05:29:43.805Z,4.85
2023-02-14T05:32:10.528Z,5.72
2023-02-14T05:34:37.287Z,4.15
2023-02-14T05:37:03.966Z,4.20
2023-02-14T05:39:30.630Z,3.88
2023-02-14T05:41:59.281Z,3.55
2023-02-14T05:44:26.087Z,3.83
2023-02-14T05:46:52.932Z,4.28
2023-02-14T05:49:19.563Z,5.15
2023-02-14T05:52:01.106Z,4.38
2023-02-14T05:54:27.753Z,4.10
2023-02-14T05:56:54.410Z,4.00
2023-02-14T05:59:21.242Z,4.45
2023-02-14T06:01:48.003Z,6.28
2023-02-14T06:04:14.908Z,11.77
2023-02-14T06:06:41.669Z,8.27
2023-02-14T06:09:08.542Z,7.32
2023-02-14T06:11:35.590Z,10.18
2023-02-14T06:14:02.293Z,12.32
2023-02-14T06:16:29.039Z,13.52
2023-02-14T06:18:55.853Z,12.15
2023-02-14T06:21:22.801Z,12.50
2023-02-14T06:23:49.673Z,12.63
2023-02-14T06:26:16.423Z,11.73
2023-02-14T06:28:43.250Z,13.20
2023-02-14T06:31:17.521Z,12.00
2023-02-14T06:33:44.329Z,11.20
2023-02-14T06:36:11.169Z,11.60
2023-02-14T06:38:38.027Z,12.60
2023-02-14T06:41:06.715Z,15.77
2023-02-14T06:43:33.615Z,15.48
2023-02-14T06:46:00.996Z,25.45
2023-02-14T06:48:27.941Z,15.02
2023-02-14T06:50:54.997Z,7.03
2023-02-14T06:53:22.160Z,6.70
2023-02-14T06:55:49.174Z,4.60
2023-02-14T06:58:16.048Z,6.85
2023-02-14T07:00:46.088Z,7.47
2023-02-14T07:03:13.143Z,23.75
2023-02-14T07:05:39.800Z,24.15
2023-02-14T07:08:08.076Z,30.65
2023-02-14T07:10:35.278Z,17.05
2023-02-14T07:13:02.140Z,18.83
2023-02-14T07:15:29.200Z,7.78
2023-02-14T07:18:01.566Z,6.20
2023-02-14T07:22:55.112Z,10.43
2023-02-14T07:25:28.782Z,28.73
2023-02-14T07:27:55.601Z,13.40
2023-02-14T07:30:22.409Z,9.13
2023-02-14T07:32:49.121Z,9.30
2023-02-14T07:35:18.959Z,27.65
2023-02-14T07:37:50.723Z,47.90
2023-02-14T07:40:18.176Z,36.70
2023-02-14T07:42:44.847Z,11.75
2023-02-14T07:45:21.527Z,12.13
2023-02-14T07:47:50.140Z,9.13
2023-02-14T07:50:43.535Z,6.15
2023-02-14T07:53:10.452Z,6.00
2023-02-14T07:56:01.264Z,6.32
2023-02-14T07:58:27.984Z,7.20
2023-02-14T08:00:55.277Z,6.18
2023-02-14T08:03:24.751Z,6.20
2023-02-14T08:05:57.579Z,6.15
2023-02-14T08:08:29.456Z,5.00
2023-02-14T08:10:59.567Z,4.95
2023-02-14T08:13:26.660Z,6.43
2023-02-14T08:16:13.158Z,5.50
2023-02-14T08:18:41.502Z,6.35
2023-02-14T08:21:10.177Z,5.65
2023-02-14T08:23:47.713Z,4.60
2023-02-14T08:26:14.705Z,5.70
2023-02-14T08:28:41.445Z,6.43
2023-02-14T08:31:10.813Z,7.13
2023-02-14T08:33:37.633Z,7.25
2023-02-14T08:36:04.971Z,7.30
2023-02-14T08:38:44.199Z,8.40
2023-02-14T08:41:11.646Z,8.70
2023-02-14T08:43:38.282Z,9.43
2023-02-14T08:46:05.051Z,11.25
2023-02-14T08:48:31.761Z,10.60
2023-02-14T08:51:20.449Z,11.30
2023-02-14T08:53:50.703Z,11.27
2023-02-14T08:56:18.848Z,12.18
2023-02-14T08:59:04.060Z,12.10
2023-02-14T09:01:30.765Z,10.88
2023-02-14T09:04:01.913Z,11.85
2023-02-14T09:06:28.676Z,11.07
2023-02-14T09:08:55.378Z,10.07
2023-02-14T09:11:25.820Z,10.38
2023-02-14T09:13:53.317Z,10.60
2023-02-14T09:16:21.779Z,9.82
2023-02-14T09:18:51.717Z,9.55
2023-02-14T09:21:25.937Z,9.23
2023-02-14T09:23:56.554Z,9.88
2023-02-14T09:26:29.368Z,9.73
2023-02-14T09:28:56.854Z,10.25
2023-02-14T09:31:24.901Z,8.68
2023-02-14T09:34:19.148Z,8.15
2023-02-14T09:37:06.390Z,9.60
2023-02-14T09:39:46.791Z,9.77
2023-02-14T09:42:48.997Z,9.38
2023-02-14T09:45:20.999Z,8.63
2023-02-14T09:47:56.340Z,9.65
2023-02-14T09:50:56.177Z,10.18
2023-02-14T09:53:27.784Z,7.60
2023-02-14T09:56:24.682Z,9.52
2023-02-14T09:59:03.682Z,7.82
2023-02-14T10:01:43.377Z,6.95
2023-02-14T10:04:46.917Z,7.07
2023-02-14T10:07:33.702Z,6.55
2023-02-14T10:10:19.698Z,8.48
2023-02-14T10:12:56.832Z,8.45
2023-02-14T10:15:31.737Z,9.20
2023-02-14T10:18:05.407Z,8.23
2023-02-14T10:21:00.319Z,9.20
2023-02-14T10:23:37.869Z,9.05
2023-02-14T10:26:06.236Z,8.15
2023-02-14T10:28:53.675Z,7.70
2023-02-14T10:31:44.907Z,7.57
2023-02-14T10:34:32.824Z,7.50
2023-02-14T10:37:24.664Z,8.20
2023-02-14T10:40:10.097Z,7.10
2023-02-14T10:42:55.698Z,8.45
2023-02-14T10:45:32.492Z,8.40
2023-02-14T10:48:08.302Z,8.60
2023-02-14T10:50:49.486Z,9.10
2023-02-14T10:53:33.812Z,8.25
2023-02-14T10:56:05.981Z,7.93
2023-02-14T10:58:37.251Z,8.10
2023-02-14T11:01:07.224Z,8.35
2023-02-14T11:03:36.951Z,7.95
2023-02-14T11:06:03.669Z,8.82
2023-02-14T11:08:41.029Z,8.68
2023-02-14T11:11:07.714Z,9.38
2023-02-14T11:13:37.353Z,8.98
2023-02-14T11:16:08.926Z,9.70
2023-02-14T11:18:37.475Z,9.52
2023-02-14T11:21:21.765Z,10.10
2023-02-14T11:23:50.343Z,10.15
2023-02-14T11:26:17.205Z,11.18
2023-02-14T11:28:52.632Z,11.95
2023-02-14T11:31:32.296Z,11.75
2023-02-14T11:34:01.883Z,12.15
2023-02-14T11:36:30.968Z,12.38
2023-02-14T11:39:26.418Z,11.85
2023-02-14T11:41:56.351Z,13.15
2023-02-14T11:44:26.229Z,13.52
2023-02-14T11:46:55.875Z,12.82
2023-02-14T11:49:35.248Z,13.68
2023-02-14T11:52:11.029Z,13.27
2023-02-14T11:54:40.932Z,12.52
2023-02-14T11:57:32.335Z,13.25
2023-02-14T12:00:02.058Z,13.35
2023-02-14T12:02:39.472Z,15.13
2023-02-14T12:05:20.801Z,12.88
2023-02-14T12:08:02.457Z,13.10
2023-02-14T12:10:33.277Z,14.77
2023-02-14T12:13:04.761Z,13.95
2023-02-14T12:15:43.837Z,14.43
2023-02-14T12:18:13.536Z,15.57
2023-02-14T12:20:52.933Z,16.33
2023-02-14T12:23:31.765Z,14.80
2023-02-14T12:26:25.620Z,14.82
2023-02-14T12:29:17.778Z,14.68
2023-02-14T12:31:47.271Z,15.40
2023-02-14T12:34:16.900Z,14.23
2023-02-14T12:37:08.179Z,14.30
2023-02-14T12:39:48.509Z,14.20
2023-02-14T12:42:42.660Z,15.40
2023-02-14T12:45:29.591Z,15.88
2023-02-14T12:48:31.708Z,14.77
2023-02-14T12:51:31.166Z,14.57
2023-02-14T12:54:19.748Z,14.95
2023-02-14T12:57:10.837Z,15.32
2023-02-14T13:00:17.569Z,14.52
2023-02-14T13:03:08.570Z,15.32
2023-02-14T13:05:44.379Z,16.67
2023-02-14T13:08:44.593Z,16.33
2023-02-14T13:11:29.027Z,17.88
2023-02-14T13:14:33.765Z,18.67
2023-02-14T13:17:34.791Z,14.90
2023-02-14T13:20:32.405Z,15.38
2023-02-14T13:23:04.273Z,13.95
2023-02-14T13:25:35.996Z,14.48
2023-02-14T13:28:10.256Z,14.52
2023-02-14T13:30:42.248Z,15.00
2023-02-14T13:33:14.808Z,14.57
2023-02-14T13:35:57.087Z,17.95
2023-02-14T13:38:25.842Z,14.95
2023-02-14T13:40:55.017Z,14.13
2023-02-14T13:43:45.782Z,21.88
2023-02-14T13:46:14.961Z,15.00
2023-02-14T13:48:42.958Z,15.23
2023-02-14T13:51:11.028Z,14.88
2023-02-14T13:53:40.937Z,15.38
2023-02-14T13:56:15.257Z,15.57
2023-02-14T13:58:55.813Z,15.10
2023-02-14T14:01:33.429Z,15.73
2023-02-14T14:04:03.827Z,15.18
2023-02-14T14:06:50.675Z,15.77
2023-02-14T14:09:43.035Z,15.07
2023-02-14T14:12:30.248Z,14.90
2023-02-14T14:15:06.079Z,16.50
2023-02-14T14:18:16.188Z,15.75
2023-02-14T14:20:47.917Z,15.27
2023-02-14T14:23:44.238Z,16.77
2023-02-14T14:26:30.718Z,16.60
2023-02-14T14:29:00.545Z,14.77
2023-02-14T14:31:29.575Z,15.73
2023-02-14T14:34:01.126Z,17.00
2023-02-14T14:36:27.869Z,17.70
2023-02-14T14:38:54.738Z,17.05
2023-02-14T14:41:35.687Z,16.65
2023-02-14T14:44:05.533Z,16.08
2023-02-14T14:46:33.156Z,17.23
2023-02-14T14:49:03.068Z,16.45
2023-02-14T14:51:34.317Z,18.38
2023-02-14T14:54:04.654Z,16.27
2023-02-14T14:56:35.899Z,17.20
2023-02-14T14:59:35.530Z,17.45
2023-02-14T15:02:07.715Z,18.40
2023-02-14T15:04:37.493Z,16.13
2023-02-14T15:07:31.031Z,17.17
2023-02-14T15:09:57.768Z,16.75
2023-02-14T15:12:45.794Z,17.23
2023-02-14T15:15:16.605Z,18.20
2023-02-14T15:17:44.798Z,17.98
2023-02-14T15:20:19.682Z,17.75
2023-02-14T15:22:49.347Z,17.73
2023-02-14T15:25:26.708Z,17.33
2023-02-14T15:27:53.851Z,17.60
2023-02-14T15:30:20.840Z,18.15
2023-02-14T15:32:49.402Z,17.35
2023-02-14T15:35:28.894Z,18.35
2023-02-14T15:38:06.702Z,18.48
2023-02-14T15:40:34.726Z,18.48
2023-02-14T15:43:19.178Z,19.70
2023-02-14T15:45:52.656Z,20.00
2023-02-14T15:48:28.637Z,18.80
2023-02-14T15:51:00.869Z,20.77
2023-02-14T15:53:38.589Z,19.67
2023-02-14T15:56:31.880Z,19.88
2023-02-14T15:59:17.189Z,19.45
2023-02-14T16:02:22.090Z,20.55
2023-02-14T16:04:48.851Z,21.70
2023-02-14T16:07:25.712Z,21.10
2023-02-14T16:10:18.218Z,20.20
2023-02-14T16:12:58.041Z,20.27
2023-02-14T16:15:27.386Z,20.50
2023-02-14T16:17:59.660Z,21.80
2023-02-14T16:22:53.630Z,20.23
2023-02-14T16:25:21.660Z,19.92
2023-02-14T16:27:48.488Z,20.30
2023-02-14T16:30:17.510Z,21.95
2023-02-14T16:32:50.056Z,21.02
2023-02-14T16:35:20.971Z,20.80
2023-02-14T16:37:49.652Z,19.75
2023-02-14T16:40:17.169Z,20.17
2023-02-14T16:42:44.116Z,41.05
2023-02-14T16:45:19.035Z,26.55
2023-02-14T16:47:47.587Z,22.30
2023-02-14T16:50:16.034Z,20.50
2023-02-14T16:52:46.582Z,21.40
2023-02-14T16:55:18.785Z,21.23
2023-02-14T16:57:49.983Z,20.52
2023-02-14T17:00:17.565Z,24.15
2023-02-14T17:02:44.936Z,25.77
2023-02-14T17:05:11.719Z,32.72
2023-02-14T17:07:41.015Z,30.00
2023-02-14T17:10:16.910Z,24.30
2023-02-14T17:12:47.421Z,23.52
2023-02-14T17:15:17.503Z,22.55
2023-02-14T17:17:45.651Z,35.13
2023-02-14T17:20:14.052Z,54.40
2023-02-14T17:22:42.600Z,46.47
2023-02-14T17:25:09.732Z,50.90
2023-02-14T17:27:37.473Z,65.90
2023-02-14T17:30:05.349Z,75.90
2023-02-14T17:32:32.190Z,53.00
2023-02-14T17:34:58.996Z,41.75
2023-02-14T17:37:25.779Z,65.97
2023-02-14T17:39:53.235Z,46.08
2023-02-14T17:42:19.966Z,38.50
2023-02-14T17:44:46.726Z,32.13
2023-02-14T17:47:14.858Z,24.58
2023-02-14T17:49:42.378Z,23.27
2023-02-14T17:52:09.102Z,25.65
2023-02-14T17:54:39.279Z,23.13
2023-02-14T17:57:06.303Z,24.42
2023-02-14T17:59:33.537Z,25.65
2023-02-14T18:02:00.888Z,26.30
2023-02-14T18:04:30.029Z,25.10
2023-02-14T18:06:57.201Z,27.27
2023-02-14T18:09:25.767Z,25.23
2023-02-14T18:11:52.620Z,24.92
2023-02-14T18:14:19.475Z,24.55
2023-02-14T18:16:46.176Z,24.75
2023-02-14T18:19:15.854Z,25.10
2023-02-14T18:21:44.454Z,45.40
2023-02-14T18:24:11.835Z,52.10
2023-02-14T18:26:40.622Z,49.45
2023-02-14T18:29:08.273Z,33.58
2023-02-14T18:31:42.813Z,30.00
2023-02-14T18:34:10.329Z,28.42
2023-02-14T18:36:39.092Z,26.77
2023-02-14T18:39:06.978Z,27.30
2023-02-14T18:41:34.025Z,27.55
2023-02-14T18:44:01.680Z,27.75
2023-02-14T18:46:33.092Z,27.48
2023-02-14T18:48:59.822Z,27.00
2023-02-14T18:51:29.610Z,26.55
2023-02-14T18:53:58.016Z,27.55
2023-02-14T18:56:28.863Z,25.83
2023-02-14T18:58:59.191Z,26.17
2023-02-14T19:01:30.501Z,27.98
2023-02-14T19:04:01.963Z,29.23
2023-02-14T19:06:30.680Z,33.13
2023-02-14T19:08:58.333Z,28.05
2023-02-14T19:11:28.157Z,30.73
2023-02-14T19:13:56.780Z,36.42
2023-02-14T19:16:29.292Z,31.75
2023-02-14T19:19:02.100Z,32.25
2023-02-14T19:21:31.991Z,72.50
2023-02-14T19:23:59.027Z,35.63
2023-02-14T19:26:29.587Z,32.10
2023-02-14T19:28:59.367Z,29.45
2023-02-14T19:31:27.109Z,33.78
2023-02-14T19:33:54.214Z,34.58
2023-02-14T19:36:22.187Z,37.30
2023-02-14T19:38:51.375Z,33.30
2023-02-14T19:41:24.056Z,39.22
2023-02-14T19:43:51.525Z,35.75
2023-02-14T19:46:21.710Z,34.40
2023-02-14T19:48:48.791Z,31.90
2023-02-14T19:51:25.656Z,34.40
2023-02-14T19:53:54.621Z,32.83
2023-02-14T19:56:26.888Z,34.60
2023-02-14T20:01:23.906Z,35.08
2023-02-14T20:03:50.961Z,32.88
2023-02-14T20:06:22.124Z,30.25
2023-02-14T20:08:48.821Z,32.38
2023-02-14T20:11:38.949Z,31.30
2023-02-14T20:14:07.103Z,28.75
2023-02-14T20:16:35.659Z,28.58
2023-02-14T20:19:05.669Z,28.95
2023-02-14T20:21:32.715Z,29.48
2023-02-14T20:24:01.187Z,29.40
2023-02-14T20:26:32.949Z,29.95
2023-02-14T20:29:04.664Z,27.05
2023-02-14T20:31:35.161Z,27.98
2023-02-14T20:34:02.581Z,29.42
2023-02-14T20:36:30.483Z,29.20
2023-02-14T20:38:58.562Z,30.13
2023-02-14T20:41:26.155Z,29.13
2023-02-14T20:44:04.001Z,28.35
2023-02-14T20:46:31.609Z,28.48
2023-02-14T20:49:00.495Z,27.05
2023-02-14T20:51:27.317Z,26.88
2023-02-14T20:53:54.267Z,25.95
2023-02-14T20:56:23.492Z,26.60
2023-02-14T20:58:50.825Z,26.00
2023-02-14T21:01:20.008Z,25.50
2023-02-14T21:03:50.312Z,23.45
2023-02-14T21:06:19.068Z,22.40
2023-02-14T21:08:46.580Z,22.55
2023-02-14T21:11:15.405Z,23.00
2023-02-14T21:13:42.420Z,22.33
2023-02-14T21:16:26.006Z,20.40
2023-02-14T21:19:00.770Z,21.52
2023-02-14T21:21:35.955Z,19.55
2023-02-14T21:24:08.729Z,21.23
2023-02-14T21:26:36.128Z,19.20
2023-02-14T21:29:02.969Z,20.58
2023-02-14T21:31:30.642Z,20.33
2023-02-14T21:33:59.256Z,20.23
2023-02-14T21:36:28.283Z,23.13
2023-02-14T21:38:58.220Z,23.65
2023-02-14T21:41:28.140Z,25.02
2023-02-14T21:43:58.681Z,27.17
2023-02-14T21:46:30.358Z,32.22
2023-02-14T21:49:19.791Z,48.13
2023-02-14T21:51:47.627Z,68.15
2023-02-14T21:54:15.151Z,28.63
2023-02-14T21:56:42.449Z,23.88
2023-02-14T21:59:13.029Z,26.48
2023-02-14T22:01:41.397Z,24.50
2023-02-14T22:04:10.839Z,22.10
2023-02-14T22:06:39.927Z,18.02
2023-02-14T22:09:07.564Z,20.77
2023-02-14T22:11:34.718Z,20.10
2023-02-14T22:14:01.603Z,19.40
2023-02-14T22:16:28.430Z,20.13
2023-02-14T22:18:55.321Z,18.95
2023-02-14T22:21:30.962Z,19.83
2023-02-14T22:23:57.619Z,18.33
2023-02-14T22:26:28.102Z,19.45
2023-02-14T22:28:57.505Z,19.15
2023-02-14T22:31:25.799Z,20.20
2023-02-14T22:33:52.688Z,17.85
2023-02-14T22:36:19.666Z,17.55
2023-02-14T22:38:53.540Z,17.58
2023-02-14T22:41:23.126Z,17.00
2023-02-14T22:43:50.563Z,19.00
2023-02-14T22:46:38.792Z,16.10
2023-02-14T22:49:06.472Z,19.10
2023-02-14T22:51:38.894Z,21.08
2023-02-14T22:54:08.757Z,20.42
2023-02-14T22:56:39.633Z,20.95
2023-02-14T22:59:08.848Z,21.55
2023-02-14T23:01:36.142Z,22.13
2023-02-14T23:04:04.331Z,21.60
2023-02-14T23:06:33.826Z,23.00
2023-02-14T23:09:02.172Z,23.40
2023-02-14T23:11:32.184Z,21.27
2023-02-14T23:14:18.080Z,22.88
2023-02-14T23:17:04.296Z,22.55
2023-02-14T23:19:52.207Z,24.10
2023-02-14T23:22:28.968Z,22.83
2023-02-14T23:24:59.691Z,25.08
2023-02-14T23:27:34.485Z,24.05
2023-02-14T23:30:01.651Z,24.13
2023-02-14T23:32:28.712Z,22.85
2023-02-14T23:34:55.457Z,21.77
2023-02-14T23:37:22.308Z,21.52
2023-02-14T23:39:49.837Z,24.13
2023-02-14T23:42:16.890Z,21.00
2023-02-14T23:44:44.581Z,21.30
2023-02-14T23:47:13.059Z,21.23
2023-02-14T23:49:40.911Z,20.35
2023-02-14T23:52:09.816Z,21.15
2023-02-14T23:54:36.861Z,22.10
2023-02-14T23:57:04.811Z,22.42
2023-02-14T23:59:31.522Z,20.95
